createdAt,value
2019-01-15T00:00:20.906Z,0.90
2019-01-15T00:05:17.430Z,1.00
2019-01-15T00:07:45.932Z,1.00
2019-01-15T00:10:14.766Z,1.00
2019-01-15T00:12:43.186Z,1.00
2019-01-15T00:15:11.918Z,1.00
2019-01-15T00:17:40.398Z,1.10
2019-01-15T00:20:11.674Z,0.90
2019-01-15T00:22:40.080Z,0.80
2019-01-15T00:27:36.846Z,0.60
2019-01-15T00:30:08.341Z,0.60
2019-01-15T00:32:36.765Z,0.60
2019-01-15T00:37:34.349Z,0.60
2019-01-15T00:40:03.249Z,0.70
2019-01-15T00:42:31.666Z,0.70
2019-01-15T00:45:00.192Z,0.70
2019-01-15T00:47:28.597Z,0.70
2019-01-15T01:02:17.667Z,1.00
2019-01-15T01:04:46.099Z,0.90
2019-01-15T01:07:14.508Z,1.10
2019-01-15T01:09:43.223Z,1.00
2019-01-15T01:12:11.694Z,1.10
2019-01-15T01:17:08.724Z,1.10
2019-01-15T01:29:29.626Z,1.10
2019-01-15T01:31:58.044Z,1.10
2019-01-15T01:34:26.460Z,1.10
2019-01-15T01:36:54.904Z,1.10
2019-01-15T01:39:23.393Z,1.10
2019-01-15T01:46:48.229Z,1.10
2019-01-15T01:49:16.922Z,1.10
2019-01-15T01:59:09.880Z,1.10
2019-01-15T02:01:38.288Z,1.10
2019-01-15T02:04:06.745Z,1.10
2019-01-15T02:06:35.174Z,1.10
2019-01-15T02:09:05.377Z,1.10
2019-01-15T02:11:33.785Z,1.10
2019-01-15T02:16:30.502Z,1.10
2019-01-15T02:18:59.008Z,1.10
2019-01-15T02:31:20.139Z,1.10
2019-01-15T02:33:48.555Z,1.10
2019-01-15T02:36:16.999Z,1.10
2019-01-15T02:38:45.468Z,1.00
2019-01-15T02:41:13.984Z,1.00
2019-01-15T02:43:42.507Z,0.90
2019-01-15T02:48:39.044Z,0.90
2019-01-15T03:00:59.845Z,0.90
2019-01-15T03:05:56.648Z,1.00
2019-01-15T03:08:25.068Z,0.90
2019-01-15T03:10:53.484Z,0.90
2019-01-15T03:15:50.019Z,0.90
2019-01-15T03:20:46.537Z,0.90
2019-01-15T03:23:15.223Z,0.90
2019-01-15T03:30:40.159Z,0.90
2019-01-15T03:33:08.577Z,0.80
2019-01-15T03:35:37.279Z,0.80
2019-01-15T03:40:33.792Z,0.80
2019-01-15T03:43:03.849Z,0.80
2019-01-15T03:45:32.403Z,0.80
2019-01-15T03:48:00.838Z,0.70
2019-01-15T04:00:23.021Z,0.70
2019-01-15T04:02:52.239Z,0.70
2019-01-15T04:05:20.721Z,0.70
2019-01-15T04:10:19.137Z,0.70
2019-01-15T04:12:47.868Z,0.60
2019-01-15T04:15:16.363Z,0.60
2019-01-15T04:17:44.802Z,0.50
2019-01-15T04:25:12.242Z,0.50
2019-01-15T04:27:40.810Z,0.50
2019-01-15T04:30:12.466Z,0.50
2019-01-15T04:32:40.894Z,0.60
2019-01-15T04:35:11.011Z,0.60
2019-01-15T04:40:10.573Z,0.50
2019-01-15T04:42:39.070Z,0.50
2019-01-15T04:57:33.779Z,0.40
2019-01-15T05:09:54.957Z,0.40
2019-01-15T05:12:23.518Z,0.40
2019-01-15T05:14:51.930Z,0.40
2019-01-15T05:17:20.359Z,0.40
2019-01-15T05:19:49.048Z,0.40
2019-01-15T05:32:10.183Z,0.50
2019-01-15T05:34:38.872Z,0.50
2019-01-15T05:39:35.365Z,0.50
2019-01-15T05:42:03.794Z,0.50
2019-01-15T05:44:32.514Z,0.50
2019-01-15T05:47:00.933Z,0.50
2019-01-15T05:59:22.038Z,0.60
2019-01-15T06:01:50.461Z,0.60
2019-01-15T06:04:18.891Z,0.60
2019-01-15T06:06:47.305Z,0.60
2019-01-15T06:09:15.726Z,0.60
2019-01-15T06:11:44.399Z,0.60
2019-01-15T06:19:09.097Z,0.60
2019-01-15T06:24:05.932Z,0.60
2019-01-15T06:26:34.407Z,0.60
2019-01-15T06:29:03.053Z,0.60
2019-01-15T06:31:31.483Z,0.60
2019-01-15T06:33:59.929Z,0.60
2019-01-15T06:36:28.342Z,0.60
2019-01-15T06:38:56.881Z,0.60
2019-01-15T06:41:25.322Z,0.60
2019-01-15T06:43:53.754Z,0.60
2019-01-15T06:46:22.169Z,0.60
2019-01-15T06:48:50.621Z,0.70
2019-01-15T06:51:19.081Z,0.70
2019-01-15T07:01:11.913Z,0.70
2019-01-15T07:03:40.333Z,0.70
2019-01-15T07:06:08.760Z,0.70
2019-01-15T07:08:37.219Z,0.70
2019-01-15T07:11:05.709Z,0.60
2019-01-15T07:13:34.133Z,0.70
2019-01-15T07:18:30.894Z,0.60
2019-01-15T07:30:51.730Z,0.60
2019-01-15T07:33:20.484Z,0.60
2019-01-15T07:35:48.926Z,0.60
2019-01-15T07:38:17.402Z,0.60
2019-01-15T07:40:45.829Z,0.60
2019-01-15T07:45:42.601Z,0.60
2019-01-15T07:50:39.195Z,0.60
2019-01-15T08:05:29.035Z,0.60
2019-01-15T08:07:57.838Z,0.60
2019-01-15T08:10:26.277Z,0.60
2019-01-15T08:15:27.326Z,0.60
2019-01-15T08:27:48.434Z,0.80
2019-01-15T08:32:49.696Z,0.90
2019-01-15T08:35:18.421Z,0.90
2019-01-15T08:37:46.949Z,1.00
2019-01-15T08:40:17.319Z,1.10
2019-01-15T08:45:18.340Z,1.10
2019-01-15T08:47:50.113Z,1.10
2019-01-15T08:50:24.072Z,1.10
2019-01-15T08:52:52.565Z,1.10
2019-01-15T08:55:21.077Z,1.10
2019-01-15T08:57:49.651Z,1.10
2019-01-15T09:00:18.140Z,1.10
2019-01-15T09:07:42.760Z,1.20
2019-01-15T09:10:15.695Z,1.20
2019-01-15T09:15:17.130Z,1.40
2019-01-15T09:17:45.697Z,1.60
2019-01-15T09:20:16.255Z,1.70
2019-01-15T09:22:44.821Z,1.90
2019-01-15T09:27:41.357Z,2.10
2019-01-15T09:30:13.114Z,2.20
2019-01-15T09:32:41.564Z,2.20
2019-01-15T09:35:09.993Z,2.10
2019-01-15T09:37:39.190Z,2.10
2019-01-15T09:40:10.693Z,2.00
2019-01-15T09:42:39.118Z,2.00
2019-01-15T09:45:13.289Z,1.90
2019-01-15T09:47:43.354Z,1.90
2019-01-15T09:50:12.511Z,1.80
2019-01-15T09:52:41.020Z,1.90
2019-01-15T10:00:17.982Z,1.90
2019-01-15T10:02:46.637Z,1.90
2019-01-15T10:05:15.125Z,1.90
2019-01-15T10:10:16.598Z,2.00
2019-01-15T10:12:45.179Z,2.10
2019-01-15T10:15:16.908Z,2.10
2019-01-15T10:22:42.611Z,2.30
2019-01-15T10:25:12.923Z,2.40
2019-01-15T10:30:17.856Z,2.50
2019-01-15T10:32:54.824Z,2.60
2019-01-15T10:35:26.313Z,2.70
2019-01-15T10:37:54.755Z,2.80
2019-01-15T10:40:23.178Z,2.80
2019-01-15T10:42:51.613Z,2.90
2019-01-15T10:45:20.059Z,3.00
2019-01-15T10:47:48.492Z,3.10
2019-01-15T10:50:17.996Z,3.20
2019-01-15T10:52:46.505Z,3.20
2019-01-15T10:55:14.925Z,3.30
2019-01-15T11:00:13.449Z,3.30
2019-01-15T11:05:11.830Z,3.50
2019-01-15T11:07:40.258Z,3.40
2019-01-15T11:10:12.019Z,3.40
2019-01-15T11:12:40.457Z,3.40
2019-01-15T11:22:35.061Z,3.70
2019-01-15T11:32:28.101Z,3.70
2019-01-15T11:34:56.521Z,3.80
2019-01-15T11:37:24.946Z,3.80
2019-01-15T11:39:53.377Z,4.00
2019-01-15T11:42:21.857Z,4.10
2019-01-15T11:47:18.406Z,4.10
2019-01-15T11:49:47.641Z,4.20
2019-01-15T11:52:16.066Z,4.10
2019-01-15T11:54:44.490Z,4.10
2019-01-15T11:57:12.941Z,4.10
2019-01-15T11:59:41.370Z,4.00
2019-01-15T12:02:11.445Z,4.00
2019-01-15T12:04:56.372Z,4.10
2019-01-15T12:07:41.013Z,4.10
2019-01-15T12:10:24.675Z,4.30
2019-01-15T12:15:27.489Z,4.30
2019-01-15T12:20:27.278Z,4.30
2019-01-15T12:25:33.006Z,4.30
2019-01-15T12:28:05.790Z,4.20
2019-01-15T12:30:44.921Z,4.10
2019-01-15T12:36:01.406Z,4.00
2019-01-15T12:38:47.809Z,3.80
2019-01-15T12:41:33.866Z,3.80
2019-01-15T12:44:04.185Z,3.70
2019-01-15T12:46:34.255Z,3.60
2019-01-15T12:51:39.024Z,3.50
2019-01-15T12:56:38.835Z,3.40
2019-01-15T12:59:23.698Z,3.40
2019-01-15T13:01:56.784Z,3.40
2019-01-15T13:04:26.848Z,3.40
2019-01-15T13:09:35.721Z,3.30
2019-01-15T13:12:05.893Z,3.30
2019-01-15T13:14:53.926Z,3.30
2019-01-15T13:17:29.419Z,3.30
2019-01-15T13:19:59.492Z,3.30
2019-01-15T13:22:29.577Z,3.30
2019-01-15T13:25:08.498Z,3.30
2019-01-15T13:30:20.274Z,3.30
2019-01-15T13:32:50.356Z,3.30
2019-01-15T13:35:29.182Z,3.30
2019-01-15T13:37:59.230Z,3.40
2019-01-15T13:40:32.035Z,3.50
2019-01-15T13:43:07.409Z,3.40
2019-01-15T13:45:41.783Z,3.40
2019-01-15T13:48:15.081Z,3.40
2019-01-15T13:53:42.988Z,3.40
2019-01-15T13:56:21.975Z,3.40
2019-01-15T13:59:03.521Z,3.30
2019-01-15T14:01:33.615Z,3.30
2019-01-15T14:04:20.682Z,3.30
2019-01-15T14:12:05.180Z,3.20
2019-01-15T14:14:41.077Z,3.30
2019-01-15T14:25:03.630Z,3.30
2019-01-15T14:27:33.706Z,3.30
2019-01-15T14:32:55.887Z,3.30
2019-01-15T14:35:34.741Z,3.30
2019-01-15T14:43:24.964Z,3.30
2019-01-15T14:48:43.420Z,3.30
2019-01-15T14:54:02.353Z,3.30
2019-01-15T14:59:14.288Z,3.30
2019-01-15T15:04:32.078Z,3.30
2019-01-15T15:09:44.004Z,3.30
2019-01-15T15:12:18.266Z,3.30
2019-01-15T15:14:48.333Z,3.20
2019-01-15T15:17:18.475Z,3.20
2019-01-15T15:20:04.642Z,3.20
2019-01-15T15:22:46.285Z,3.20
2019-01-15T15:25:16.409Z,3.20
2019-01-15T15:27:55.377Z,3.10
2019-01-15T15:30:31.403Z,3.10
2019-01-15T15:33:01.510Z,3.10
2019-01-15T15:35:34.289Z,3.10
2019-01-15T15:38:10.021Z,3.10
2019-01-15T15:40:45.589Z,3.10
2019-01-15T15:43:15.659Z,3.00
2019-01-15T15:46:10.929Z,3.00
2019-01-15T15:48:35.553Z,3.00
2019-01-15T15:51:05.859Z,3.00
2019-01-15T15:53:38.902Z,3.00
2019-01-15T16:01:48.068Z,3.00
2019-01-15T16:04:21.240Z,3.00
2019-01-15T16:06:51.552Z,3.00
2019-01-15T16:09:38.292Z,2.90
2019-01-15T16:12:08.486Z,2.90
2019-01-15T16:14:38.882Z,2.90
2019-01-15T16:19:41.690Z,2.90
2019-01-15T16:22:11.737Z,2.90
2019-01-15T16:27:29.745Z,2.90
2019-01-15T16:29:59.883Z,2.80
2019-01-15T16:32:38.446Z,2.80
2019-01-15T16:35:21.285Z,2.80
2019-01-15T16:37:54.258Z,2.90
2019-01-15T16:40:33.425Z,2.80
2019-01-15T16:46:07.995Z,2.80
2019-01-15T16:48:38.125Z,2.80
2019-01-15T16:51:25.890Z,2.80
2019-01-15T16:54:05.011Z,2.80
2019-01-15T16:59:19.343Z,2.80
2019-01-15T17:01:55.134Z,2.70
2019-01-15T17:04:31.198Z,2.80
2019-01-15T17:07:07.286Z,2.80
2019-01-15T17:09:52.209Z,2.80
2019-01-15T17:12:36.891Z,2.80
2019-01-15T17:17:53.719Z,2.80
2019-01-15T17:20:23.980Z,2.70
2019-01-15T17:33:32.716Z,2.70
2019-01-15T17:36:02.785Z,2.70
2019-01-15T17:38:35.552Z,2.70
2019-01-15T17:41:21.653Z,2.70
2019-01-15T17:43:54.501Z,2.70
2019-01-15T17:54:24.821Z,2.70
2019-01-15T17:59:35.938Z,2.80
2019-01-15T18:02:24.570Z,2.80
2019-01-15T18:04:54.659Z,2.80
2019-01-15T18:07:36.624Z,2.80
2019-01-15T18:10:24.846Z,2.70
2019-01-15T18:12:54.943Z,2.80
2019-01-15T18:18:10.205Z,2.80
2019-01-15T18:20:40.499Z,2.80
2019-01-15T18:23:16.254Z,2.80
2019-01-15T18:26:01.380Z,2.70
2019-01-15T18:31:18.087Z,2.70
2019-01-15T18:33:48.146Z,2.70
2019-01-15T18:36:18.288Z,2.70
2019-01-15T18:39:00.129Z,2.70
2019-01-15T18:41:42.109Z,2.70
2019-01-15T18:44:18.007Z,2.70
2019-01-15T18:46:56.021Z,2.70
2019-01-15T18:49:28.564Z,2.70
2019-01-15T18:52:16.497Z,2.70
2019-01-15T18:54:52.650Z,2.70
2019-01-15T18:57:28.529Z,2.70
2019-01-15T18:59:58.621Z,2.70
2019-01-15T19:02:37.154Z,2.70
2019-01-15T19:05:17.245Z,2.70
2019-01-15T19:07:52.867Z,2.70
2019-01-15T19:10:23.025Z,2.70
2019-01-15T19:12:56.046Z,2.70
2019-01-15T19:15:26.178Z,2.80
2019-01-15T19:17:59.114Z,2.80
2019-01-15T19:28:54.806Z,2.80
2019-01-15T19:31:40.856Z,2.70
2019-01-15T19:37:13.143Z,2.80
2019-01-15T19:39:45.643Z,2.70
2019-01-15T19:42:18.661Z,2.70
2019-01-15T19:47:21.215Z,2.70
2019-01-15T20:00:17.496Z,2.70
2019-01-15T20:03:03.689Z,2.60
2019-01-15T20:05:36.194Z,2.60
2019-01-15T20:08:06.270Z,2.60
2019-01-15T20:10:38.994Z,2.60
2019-01-15T20:13:09.144Z,2.70
2019-01-15T20:15:51.915Z,2.70
2019-01-15T20:18:36.875Z,2.70
2019-01-15T20:24:08.919Z,2.60
2019-01-15T20:29:08.774Z,2.60
2019-01-15T20:31:38.866Z,2.60
2019-01-15T20:34:11.761Z,2.60
2019-01-15T20:39:22.940Z,2.60
2019-01-15T20:42:09.117Z,2.70
2019-01-15T20:47:25.507Z,2.70
2019-01-15T20:52:43.689Z,2.70
2019-01-15T20:55:25.548Z,2.70
2019-01-15T20:58:10.386Z,2.70
2019-01-15T21:00:46.463Z,2.70
2019-01-15T21:03:32.496Z,2.70
2019-01-15T21:06:11.366Z,2.70
2019-01-15T21:08:50.359Z,2.70
2019-01-15T21:11:34.969Z,2.70
2019-01-15T21:19:10.510Z,2.60
2019-01-15T21:21:40.598Z,2.60
2019-01-15T21:29:43.236Z,2.50
2019-01-15T21:32:16.273Z,2.40
2019-01-15T21:34:46.576Z,2.40
2019-01-15T21:37:16.629Z,2.40
2019-01-15T21:39:52.352Z,2.40
2019-01-15T21:45:01.422Z,2.30
2019-01-15T21:47:40.098Z,2.30
2019-01-15T21:50:13.874Z,2.30
2019-01-15T21:52:47.893Z,2.30
2019-01-15T21:55:27.489Z,2.30
2019-01-15T21:58:09.372Z,2.30
2019-01-15T22:00:45.301Z,2.30
2019-01-15T22:03:15.365Z,2.30
2019-01-15T22:06:00.737Z,2.30
2019-01-15T22:08:31.126Z,2.30
2019-01-15T22:11:09.965Z,2.30
2019-01-15T22:13:42.954Z,2.30
2019-01-15T22:18:48.887Z,2.30
2019-01-15T22:29:41.865Z,2.30
2019-01-15T22:32:15.098Z,2.30
2019-01-15T22:34:47.867Z,2.30
2019-01-15T22:37:24.165Z,2.30
2019-01-15T22:39:54.367Z,2.20
2019-01-15T22:42:27.342Z,2.20
2019-01-15T22:47:27.133Z,2.20
2019-01-15T22:52:36.037Z,2.20
2019-01-15T22:55:19.477Z,2.20
2019-01-15T22:57:58.151Z,2.20
2019-01-15T23:00:56.673Z,2.10
2019-01-15T23:03:35.551Z,2.10
2019-01-15T23:06:20.945Z,2.10
2019-01-15T23:08:51.101Z,2.10
2019-01-15T23:11:21.206Z,2.10
2019-01-15T23:13:51.351Z,2.10
2019-01-15T23:16:21.483Z,2.10
2019-01-15T23:19:07.854Z,2.10
2019-01-15T23:21:46.426Z,2.10
2019-01-15T23:24:32.642Z,2.10
2019-01-15T23:27:05.427Z,2.10
2019-01-15T23:29:44.277Z,2.10
2019-01-15T23:35:04.680Z,2.10
2019-01-15T23:37:34.751Z,2.10
2019-01-15T23:40:16.955Z,2.10
2019-01-15T23:42:49.908Z,2.10
2019-01-15T23:45:20.257Z,2.10
2019-01-15T23:48:09.461Z,2.10
2019-01-15T23:50:34.330Z,2.10
2019-01-15T23:53:04.397Z,2.00
2019-01-15T23:55:34.485Z,2.10
2019-01-15T23:58:07.275Z,2.10
